createdAt,value
2016-07-31T00:00:21.577Z,0
2016-07-31T00:01:19.260Z,0
2016-07-31T00:02:19.991Z,0
2016-07-31T00:03:21.390Z,0
2016-07-31T00:04:20.691Z,0
2016-07-31T00:05:20.636Z,0
2016-07-31T00:06:19.917Z,0
2016-07-31T00:07:20.606Z,0
2016-07-31T00:08:21.327Z,0
2016-07-31T00:09:20.590Z,0
2016-07-31T00:10:21.347Z,0
2016-07-31T00:11:21.258Z,0
2016-07-31T00:12:19.839Z,0
2016-07-31T00:13:20.536Z,0
2016-07-31T00:14:20.555Z,0
2016-07-31T00:15:20.526Z,0
2016-07-31T00:16:19.148Z,0
2016-07-31T00:17:19.757Z,0
2016-07-31T00:18:20.497Z,0
2016-07-31T00:19:19.729Z,0
2016-07-31T00:20:20.496Z,0
2016-07-31T00:21:19.069Z,0
2016-07-31T00:22:21.154Z,0
2016-07-31T00:23:21.196Z,0
2016-07-31T00:24:21.116Z,0
2016-07-31T00:25:21.124Z,0
2016-07-31T00:26:20.386Z,0
2016-07-31T00:27:21.081Z,0
2016-07-31T00:28:21.109Z,0
2016-07-31T00:29:19.616Z,0
2016-07-31T00:30:19.617Z,0
2016-07-31T00:31:20.316Z,0
2016-07-31T00:32:20.308Z,0
2016-07-31T00:33:21.018Z,0
2016-07-31T00:34:21.009Z,0
2016-07-31T00:35:20.290Z,0
2016-07-31T00:36:20.990Z,0
2016-07-31T00:37:21.236Z,0
2016-07-31T00:38:20.226Z,0
2016-07-31T00:39:20.226Z,0
2016-07-31T00:40:20.917Z,0
2016-07-31T00:41:20.205Z,0
2016-07-31T00:42:20.929Z,0
2016-07-31T00:43:20.890Z,0
2016-07-31T00:44:20.276Z,0
2016-07-31T00:45:20.860Z,0
2016-07-31T00:46:20.130Z,0
2016-07-31T00:47:19.430Z,0
2016-07-31T00:48:20.129Z,0
2016-07-31T00:49:20.099Z,0
2016-07-31T00:50:19.370Z,0
2016-07-31T00:51:20.790Z,0
2016-07-31T00:52:20.774Z,0
2016-07-31T00:53:20.051Z,0
2016-07-31T00:54:20.730Z,0
2016-07-31T00:55:20.737Z,0
2016-07-31T00:56:20.728Z,0
2016-07-31T00:57:19.989Z,0
2016-07-31T00:58:19.978Z,0
2016-07-31T00:59:19.267Z,0
2016-07-31T01:00:19.970Z,0
2016-07-31T01:01:20.746Z,0
2016-07-31T01:02:20.639Z,0
2016-07-31T01:03:19.909Z,0
2016-07-31T01:04:19.205Z,0
2016-07-31T01:05:20.707Z,0
2016-07-31T01:06:19.868Z,0
2016-07-31T01:07:19.858Z,0
2016-07-31T01:08:19.855Z,0
2016-07-31T01:09:19.869Z,0
2016-07-31T01:10:20.546Z,0
2016-07-31T01:11:19.119Z,0
2016-07-31T01:12:19.813Z,0
2016-07-31T01:13:20.515Z,0
2016-07-31T01:14:20.490Z,0
2016-07-31T01:15:19.098Z,0
2016-07-31T01:16:19.128Z,0
2016-07-31T01:17:19.750Z,0
2016-07-31T01:18:19.089Z,0
2016-07-31T01:19:20.675Z,0
2016-07-31T01:20:20.429Z,0
2016-07-31T01:21:20.475Z,0
2016-07-31T01:22:19.031Z,0
2016-07-31T01:23:20.387Z,0
2016-07-31T01:24:20.369Z,0
2016-07-31T01:25:20.376Z,0
2016-07-31T01:26:19.645Z,0
2016-07-31T01:27:18.187Z,0
2016-07-31T01:28:18.890Z,0
2016-07-31T01:29:19.597Z,0
2016-07-31T01:30:19.577Z,0
2016-07-31T01:31:20.286Z,0
2016-07-31T01:32:20.265Z,0
2016-07-31T01:33:20.258Z,0
2016-07-31T01:34:20.248Z,0
2016-07-31T01:35:20.344Z,0
2016-07-31T01:36:20.198Z,0
2016-07-31T01:37:18.067Z,0
2016-07-31T01:38:20.199Z,0
2016-07-31T01:39:20.179Z,0
2016-07-31T01:40:20.168Z,0
2016-07-31T01:41:19.426Z,0
2016-07-31T01:42:19.569Z,0
2016-07-31T01:43:18.682Z,0
2016-07-31T01:44:19.419Z,0
2016-07-31T01:45:20.093Z,0
2016-07-31T01:46:19.386Z,0
2016-07-31T01:47:20.093Z,0
2016-07-31T01:48:20.076Z,0
2016-07-31T01:49:19.326Z,0
2016-07-31T01:50:20.034Z,0
2016-07-31T01:51:19.325Z,0
2016-07-31T01:52:20.021Z,0
2016-07-31T01:53:19.993Z,0
2016-07-31T01:54:19.286Z,0
2016-07-31T01:55:19.509Z,0
2016-07-31T01:56:19.956Z,0
2016-07-31T01:57:19.947Z,0
2016-07-31T01:59:19.198Z,0
2016-07-31T02:00:18.483Z,0
2016-07-31T02:01:19.176Z,0
2016-07-31T02:02:19.208Z,0
2016-07-31T02:03:19.868Z,0
2016-07-31T02:04:19.874Z,0
2016-07-31T02:05:19.129Z,0
2016-07-31T02:06:19.969Z,0
2016-07-31T02:07:19.809Z,0
2016-07-31T02:08:19.166Z,0
2016-07-31T02:09:19.089Z,0
2016-07-31T02:10:19.870Z,0
2016-07-31T02:11:19.808Z,0
2016-07-31T02:12:19.759Z,0
2016-07-31T02:14:19.149Z,0
2016-07-31T02:15:19.710Z,0
2016-07-31T02:16:19.044Z,0
2016-07-31T02:17:18.267Z,0
2016-07-31T02:18:18.292Z,0
2016-07-31T02:19:19.659Z,0
2016-07-31T02:20:18.985Z,0
2016-07-31T02:21:19.633Z,0
2016-07-31T02:22:18.937Z,0
2016-07-31T02:23:18.876Z,0
2016-07-31T02:24:19.587Z,0
2016-07-31T02:25:18.875Z,0
2016-07-31T02:26:19.587Z,0
2016-07-31T02:27:18.845Z,0
2016-07-31T02:29:18.848Z,0
2016-07-31T02:30:18.094Z,0
2016-07-31T02:31:18.789Z,0
2016-07-31T02:32:18.772Z,0
2016-07-31T02:33:18.768Z,0
2016-07-31T02:34:19.478Z,0
2016-07-31T02:35:19.460Z,0
2016-07-31T02:36:19.447Z,0
2016-07-31T02:37:19.430Z,0
2016-07-31T02:38:19.467Z,0
2016-07-31T02:39:19.400Z,0
2016-07-31T02:40:18.667Z,0
2016-07-31T02:41:18.657Z,0
2016-07-31T02:42:19.389Z,0
2016-07-31T02:43:17.908Z,0
2016-07-31T02:44:19.373Z,0
2016-07-31T02:45:19.305Z,0
2016-07-31T02:46:17.868Z,0
2016-07-31T02:47:19.277Z,0
2016-07-31T02:48:19.266Z,0
2016-07-31T02:49:18.542Z,0
2016-07-31T02:50:17.829Z,0
2016-07-31T02:51:19.239Z,0
2016-07-31T02:52:19.223Z,0
2016-07-31T02:53:19.206Z,0
2016-07-31T02:54:17.751Z,0
2016-07-31T02:55:19.193Z,0
2016-07-31T02:56:19.216Z,0
2016-07-31T02:57:19.156Z,0
2016-07-31T02:58:18.418Z,0
2016-07-31T02:59:19.117Z,0
2016-07-31T03:00:18.393Z,0
2016-07-31T03:01:18.369Z,0
2016-07-31T03:02:18.395Z,0
2016-07-31T03:03:18.360Z,0
2016-07-31T03:04:18.430Z,0
2016-07-31T03:05:19.049Z,0
2016-07-31T03:06:19.045Z,0
2016-07-31T03:07:18.316Z,0
2016-07-31T03:08:19.028Z,0
2016-07-31T03:09:18.274Z,0
2016-07-31T03:10:18.989Z,0
2016-07-31T03:11:18.980Z,0
2016-07-31T03:12:18.240Z,0
2016-07-31T03:13:18.208Z,0
2016-07-31T03:14:18.939Z,0
2016-07-31T03:15:18.906Z,0
2016-07-31T03:16:18.899Z,0
2016-07-31T03:17:18.886Z,0
2016-07-31T03:18:18.877Z,0
2016-07-31T03:19:18.869Z,0
2016-07-31T03:20:18.135Z,0
2016-07-31T03:21:18.838Z,0
2016-07-31T03:22:18.838Z,0
2016-07-31T03:23:17.389Z,0
2016-07-31T03:24:18.819Z,0
2016-07-31T03:25:18.788Z,0
2016-07-31T03:26:18.047Z,0
2016-07-31T03:27:18.745Z,0
2016-07-31T03:28:18.038Z,0
2016-07-31T03:29:18.746Z,0
2016-07-31T03:30:18.727Z,0
2016-07-31T03:31:18.030Z,0
2016-07-31T03:32:17.267Z,0
2016-07-31T03:33:18.778Z,0
2016-07-31T03:34:17.253Z,0
2016-07-31T03:35:17.926Z,0
2016-07-31T03:36:18.625Z,0
2016-07-31T03:37:17.275Z,0
2016-07-31T03:38:18.620Z,0
2016-07-31T03:39:17.930Z,0
2016-07-31T03:40:17.874Z,0
2016-07-31T03:41:18.578Z,0
2016-07-31T03:42:17.843Z,0
2016-07-31T03:43:17.836Z,0
2016-07-31T03:44:18.541Z,0
2016-07-31T03:45:17.798Z,0
2016-07-31T03:46:17.797Z,0
2016-07-31T03:47:17.815Z,0
2016-07-31T03:48:17.759Z,0
2016-07-31T03:49:18.485Z,0
2016-07-31T03:50:17.744Z,0
2016-07-31T03:51:17.736Z,0
2016-07-31T03:52:18.409Z,0
2016-07-31T03:53:17.768Z,0
2016-07-31T03:54:18.403Z,0
2016-07-31T03:55:17.665Z,0
2016-07-31T03:56:17.666Z,0
2016-07-31T03:57:17.672Z,0
2016-07-31T03:58:18.359Z,0
2016-07-31T03:59:18.346Z,5
2016-07-31T04:00:18.369Z,5
2016-07-31T04:01:17.618Z,5
2016-07-31T04:02:17.589Z,5
2016-07-31T04:03:17.577Z,5
2016-07-31T04:04:17.575Z,5
2016-07-31T04:05:17.547Z,5
2016-07-31T04:06:17.549Z,5
2016-07-31T04:07:18.319Z,5
2016-07-31T04:08:17.509Z,10
2016-07-31T04:09:18.206Z,10
2016-07-31T04:10:18.206Z,10
2016-07-31T04:11:17.538Z,10
2016-07-31T04:12:17.468Z,10
2016-07-31T04:13:18.191Z,10
2016-07-31T04:14:16.719Z,10
2016-07-31T04:15:16.716Z,10
2016-07-31T04:16:18.148Z,10
2016-07-31T04:17:18.113Z,10
2016-07-31T04:18:18.095Z,10
2016-07-31T04:19:18.150Z,10
2016-07-31T04:20:18.079Z,10
2016-07-31T04:21:16.639Z,10
2016-07-31T04:22:17.407Z,10
2016-07-31T04:23:17.316Z,10
2016-07-31T04:24:16.590Z,10
2016-07-31T04:25:17.308Z,10
2016-07-31T04:26:17.271Z,10
2016-07-31T04:27:16.549Z,10
2016-07-31T04:28:17.999Z,10
2016-07-31T04:29:17.239Z,10
2016-07-31T04:30:17.948Z,10
2016-07-31T04:31:17.939Z,10
2016-07-31T04:32:17.216Z,10
2016-07-31T04:33:17.908Z,10
2016-07-31T04:34:17.896Z,10
2016-07-31T04:35:17.157Z,15
2016-07-31T04:36:17.886Z,15
2016-07-31T04:37:16.417Z,10
2016-07-31T04:38:17.846Z,10
2016-07-31T04:39:17.831Z,10
2016-07-31T04:40:17.879Z,15
2016-07-31T04:41:17.791Z,15
2016-07-31T04:42:17.800Z,15
2016-07-31T04:43:17.776Z,15
2016-07-31T04:44:17.187Z,15
2016-07-31T04:45:16.312Z,15
2016-07-31T04:46:17.740Z,20
2016-07-31T04:47:17.011Z,20
2016-07-31T04:48:17.719Z,20
2016-07-31T04:49:16.983Z,25
2016-07-31T04:50:17.720Z,25
2016-07-31T04:51:17.658Z,25
2016-07-31T04:52:16.277Z,25
2016-07-31T04:53:17.663Z,25
2016-07-31T04:54:15.505Z,25
2016-07-31T04:55:16.900Z,30
2016-07-31T04:56:17.610Z,30
2016-07-31T04:57:16.889Z,30
2016-07-31T04:58:17.574Z,35
2016-07-31T04:59:17.557Z,35
2016-07-31T05:00:16.945Z,35
2016-07-31T05:01:17.551Z,30
2016-07-31T05:02:16.098Z,30
2016-07-31T05:03:16.800Z,30
2016-07-31T05:04:17.519Z,30
2016-07-31T05:05:16.797Z,30
2016-07-31T05:06:17.477Z,30
2016-07-31T05:07:16.062Z,30
2016-07-31T05:08:17.527Z,30
2016-07-31T05:09:17.450Z,30
2016-07-31T05:10:17.457Z,30
2016-07-31T05:11:17.424Z,30
2016-07-31T05:12:15.990Z,35
2016-07-31T05:13:17.403Z,40
2016-07-31T05:14:16.685Z,40
2016-07-31T05:15:16.007Z,40
2016-07-31T05:16:15.920Z,40
2016-07-31T05:17:16.625Z,40
2016-07-31T05:18:15.890Z,45
2016-07-31T05:19:17.330Z,45
2016-07-31T05:20:16.595Z,50
2016-07-31T05:21:17.286Z,50
2016-07-31T05:22:17.555Z,50
2016-07-31T05:23:16.636Z,55
2016-07-31T05:24:17.299Z,55
2016-07-31T05:25:16.526Z,55
2016-07-31T05:26:16.509Z,55
2016-07-31T05:27:17.228Z,60
2016-07-31T05:28:17.218Z,60
2016-07-31T05:29:16.289Z,60
2016-07-31T05:30:17.217Z,60
2016-07-31T05:31:17.187Z,60
2016-07-31T05:32:17.190Z,55
2016-07-31T05:33:16.499Z,55
2016-07-31T05:34:17.158Z,55
2016-07-31T05:35:15.690Z,60
2016-07-31T05:36:17.107Z,60
2016-07-31T05:37:16.374Z,60
2016-07-31T05:38:17.099Z,60
2016-07-31T05:39:16.370Z,55
2016-07-31T05:40:16.340Z,60
2016-07-31T05:41:17.044Z,60
2016-07-31T05:42:15.597Z,60
2016-07-31T05:43:17.038Z,60
2016-07-31T05:45:15.545Z,55
2016-07-31T05:46:17.011Z,50
2016-07-31T05:47:16.977Z,50
2016-07-31T05:48:16.978Z,45
2016-07-31T05:49:16.955Z,45
2016-07-31T05:50:16.930Z,45
2016-07-31T05:51:16.956Z,40
2016-07-31T05:52:15.477Z,45
2016-07-31T05:53:16.178Z,45
2016-07-31T05:54:16.897Z,45
2016-07-31T05:55:16.890Z,40
2016-07-31T05:56:16.876Z,40
2016-07-31T05:57:16.861Z,40
2016-07-31T05:58:16.119Z,40
2016-07-31T06:00:16.819Z,45
2016-07-31T06:01:14.774Z,45
2016-07-31T06:02:16.075Z,45
2016-07-31T06:03:16.092Z,45
2016-07-31T06:04:16.750Z,40
2016-07-31T06:05:15.306Z,40
2016-07-31T06:06:16.750Z,40
2016-07-31T06:07:16.719Z,40
2016-07-31T06:08:16.018Z,40
2016-07-31T06:09:15.267Z,40
2016-07-31T06:10:15.280Z,40
2016-07-31T06:11:16.730Z,40
2016-07-31T06:12:15.949Z,40
2016-07-31T06:13:16.661Z,40
2016-07-31T06:15:16.697Z,40
2016-07-31T06:16:15.891Z,35
2016-07-31T06:17:16.629Z,35
2016-07-31T06:18:16.577Z,35
2016-07-31T06:19:16.579Z,35
2016-07-31T06:20:15.119Z,35
2016-07-31T06:21:15.825Z,40
2016-07-31T06:22:16.550Z,40
2016-07-31T06:23:16.599Z,40
2016-07-31T06:24:16.498Z,40
2016-07-31T06:25:15.060Z,40
2016-07-31T06:26:16.489Z,45
2016-07-31T06:27:16.471Z,50
2016-07-31T06:28:16.459Z,55
2016-07-31T06:29:15.029Z,60
2016-07-31T06:30:16.436Z,60
2016-07-31T06:31:16.419Z,55
2016-07-31T06:32:16.411Z,50
2016-07-31T06:33:15.690Z,50
2016-07-31T06:34:16.377Z,50
2016-07-31T06:35:16.390Z,55
2016-07-31T06:36:14.950Z,55
2016-07-31T06:37:15.645Z,60
2016-07-31T06:38:16.361Z,65
2016-07-31T06:39:15.620Z,70
2016-07-31T06:40:14.877Z,70
2016-07-31T06:41:15.608Z,65
2016-07-31T06:42:16.291Z,65
2016-07-31T06:43:15.540Z,60
2016-07-31T06:44:15.539Z,60
2016-07-31T06:45:16.248Z,60
2016-07-31T06:46:15.560Z,55
2016-07-31T06:47:14.826Z,60
2016-07-31T06:48:16.244Z,60
2016-07-31T06:49:16.259Z,60
2016-07-31T06:50:15.499Z,55
2016-07-31T06:51:14.768Z,50
2016-07-31T06:52:16.169Z,45
2016-07-31T06:53:14.722Z,40
2016-07-31T06:54:16.140Z,40
2016-07-31T06:55:13.998Z,40
2016-07-31T06:56:16.161Z,40
2016-07-31T06:57:15.396Z,40
2016-07-31T06:58:16.106Z,40
2016-07-31T06:59:14.648Z,40
2016-07-31T07:00:16.088Z,40
2016-07-31T07:01:14.700Z,35
2016-07-31T07:02:15.360Z,35
2016-07-31T07:03:15.320Z,40
2016-07-31T07:04:16.099Z,40
2016-07-31T07:05:15.300Z,40
2016-07-31T07:06:14.663Z,40
2016-07-31T07:07:14.561Z,35
2016-07-31T07:08:16.090Z,35
2016-07-31T07:09:15.971Z,35
2016-07-31T07:10:15.255Z,35
2016-07-31T07:11:15.957Z,40
2016-07-31T07:12:15.951Z,40
2016-07-31T07:13:15.197Z,40
2016-07-31T07:14:15.939Z,35
2016-07-31T07:15:14.481Z,40
2016-07-31T07:16:14.487Z,40
2016-07-31T07:17:15.140Z,45
2016-07-31T07:18:15.178Z,50
2016-07-31T07:19:13.711Z,50
2016-07-31T07:20:15.122Z,55
2016-07-31T07:21:15.096Z,55
2016-07-31T07:22:14.400Z,55
2016-07-31T07:23:15.816Z,60
2016-07-31T07:24:15.081Z,65
2016-07-31T07:25:15.147Z,70
2016-07-31T07:26:15.050Z,75
2016-07-31T07:27:15.761Z,80
2016-07-31T07:28:15.749Z,85
2016-07-31T07:29:14.281Z,100
2016-07-31T07:30:15.002Z,105
2016-07-31T07:31:15.012Z,110
2016-07-31T07:32:15.799Z,110
2016-07-31T07:33:14.262Z,105
2016-07-31T07:34:14.958Z,95
2016-07-31T07:35:14.942Z,95
2016-07-31T07:36:14.927Z,100
2016-07-31T07:37:14.918Z,100
2016-07-31T07:38:14.222Z,105
2016-07-31T07:39:15.645Z,110
2016-07-31T07:40:14.911Z,125
2016-07-31T07:41:15.600Z,150
2016-07-31T07:42:15.629Z,170
2016-07-31T07:43:15.571Z,165
2016-07-31T07:44:14.847Z,165
2016-07-31T07:45:14.836Z,170
2016-07-31T07:46:15.562Z,145
2016-07-31T07:47:14.815Z,140
2016-07-31T07:48:15.520Z,130
2016-07-31T07:49:15.511Z,125
2016-07-31T07:50:15.504Z,105
2016-07-31T07:51:14.763Z,95
2016-07-31T07:52:14.747Z,90
2016-07-31T07:53:15.457Z,90
2016-07-31T07:54:14.736Z,90
2016-07-31T07:55:14.739Z,95
2016-07-31T07:56:14.722Z,95
2016-07-31T07:57:14.705Z,95
2016-07-31T07:58:13.232Z,95
2016-07-31T07:59:15.422Z,95
2016-07-31T08:00:14.681Z,95
2016-07-31T08:01:13.268Z,95
2016-07-31T08:02:15.341Z,90
2016-07-31T08:03:13.929Z,90
2016-07-31T08:04:14.620Z,95
2016-07-31T08:05:13.893Z,85
2016-07-31T08:06:15.297Z,85
2016-07-31T08:07:14.599Z,90
2016-07-31T08:08:15.301Z,90
2016-07-31T08:09:14.596Z,90
2016-07-31T08:10:15.272Z,85
2016-07-31T08:11:14.539Z,85
2016-07-31T08:12:14.532Z,90
2016-07-31T08:13:15.262Z,95
2016-07-31T08:14:14.522Z,105
2016-07-31T08:15:13.767Z,110
2016-07-31T08:16:15.221Z,110
2016-07-31T08:17:14.488Z,110
2016-07-31T08:18:15.191Z,110
2016-07-31T08:19:15.188Z,120
2016-07-31T08:20:14.451Z,115
2016-07-31T08:21:15.151Z,110
2016-07-31T08:22:14.432Z,110
2016-07-31T08:23:15.188Z,110
2016-07-31T08:24:14.400Z,110
2016-07-31T08:25:14.415Z,110
2016-07-31T08:26:13.652Z,115
2016-07-31T08:27:14.367Z,115
2016-07-31T08:28:14.361Z,120
2016-07-31T08:29:13.700Z,120
2016-07-31T08:30:15.048Z,110
2016-07-31T08:31:14.490Z,100
2016-07-31T08:32:12.884Z,100
2016-07-31T08:33:14.373Z,105
2016-07-31T08:34:15.030Z,110
2016-07-31T08:35:15.029Z,120
2016-07-31T08:36:14.282Z,135
2016-07-31T08:37:14.260Z,150
2016-07-31T08:38:14.315Z,175
2016-07-31T08:39:13.539Z,330
2016-07-31T08:40:14.240Z,175
2016-07-31T08:41:14.996Z,215
2016-07-31T08:42:14.957Z,205
2016-07-31T08:43:14.201Z,200
2016-07-31T08:44:14.267Z,205
2016-07-31T08:45:14.177Z,130
2016-07-31T08:46:14.171Z,100
2016-07-31T08:47:14.240Z,115
2016-07-31T08:48:14.859Z,110
2016-07-31T08:49:14.863Z,105
2016-07-31T08:50:14.863Z,100
2016-07-31T08:51:14.831Z,95
2016-07-31T08:52:13.539Z,85
2016-07-31T08:53:12.668Z,90
2016-07-31T08:54:13.411Z,95
2016-07-31T08:55:13.368Z,95
2016-07-31T08:56:14.077Z,105
2016-07-31T08:57:14.777Z,110
2016-07-31T08:58:14.778Z,135
2016-07-31T08:59:14.030Z,150
2016-07-31T09:00:14.035Z,140
2016-07-31T09:01:14.032Z,130
2016-07-31T09:02:14.088Z,130
2016-07-31T09:03:13.986Z,140
2016-07-31T09:04:13.306Z,145
2016-07-31T09:05:13.246Z,145
2016-07-31T09:06:13.951Z,150
2016-07-31T09:07:13.937Z,165
2016-07-31T09:08:13.963Z,175
2016-07-31T09:09:13.930Z,185
2016-07-31T09:10:14.644Z,195
2016-07-31T09:11:14.618Z,215
2016-07-31T09:12:13.968Z,220
2016-07-31T09:13:14.593Z,200
2016-07-31T09:14:14.599Z,165
2016-07-31T09:15:13.888Z,150
2016-07-31T09:16:13.873Z,145
2016-07-31T09:17:12.441Z,145
2016-07-31T09:18:14.560Z,180
2016-07-31T09:19:14.528Z,240
2016-07-31T09:20:14.550Z,305
2016-07-31T09:21:13.801Z,350
2016-07-31T09:22:14.497Z,340
2016-07-31T09:23:13.786Z,335
2016-07-31T09:24:13.789Z,350
2016-07-31T09:25:13.766Z,375
2016-07-31T09:26:14.481Z,410
2016-07-31T09:27:14.445Z,475
2016-07-31T09:28:14.450Z,405
2016-07-31T09:29:14.426Z,395
2016-07-31T09:30:14.551Z,445
2016-07-31T09:31:13.687Z,450
2016-07-31T09:32:14.440Z,445
2016-07-31T09:33:11.594Z,480
2016-07-31T09:34:13.668Z,535
2016-07-31T09:35:13.676Z,585
2016-07-31T09:36:13.638Z,560
2016-07-31T09:37:14.366Z,560
2016-07-31T09:38:14.365Z,775
2016-07-31T09:39:14.358Z,485
2016-07-31T09:40:12.903Z,580
2016-07-31T09:41:14.319Z,465
2016-07-31T09:42:12.885Z,605
2016-07-31T09:43:14.319Z,375
2016-07-31T09:44:14.307Z,375
2016-07-31T09:45:12.970Z,380
2016-07-31T09:46:14.295Z,400
2016-07-31T09:47:13.578Z,795
2016-07-31T09:48:13.565Z,420
2016-07-31T09:49:13.608Z,365
2016-07-31T09:50:13.558Z,285
2016-07-31T09:51:12.853Z,340
2016-07-31T09:52:12.807Z,290
2016-07-31T09:53:14.289Z,220
2016-07-31T09:54:14.245Z,200
2016-07-31T09:55:12.890Z,185
2016-07-31T09:56:13.528Z,180
2016-07-31T09:57:14.201Z,170
2016-07-31T09:58:14.205Z,165
2016-07-31T09:59:14.222Z,155
2016-07-31T10:00:11.867Z,150
2016-07-31T10:01:13.475Z,150
2016-07-31T10:02:12.733Z,150
2016-07-31T10:03:13.456Z,155
2016-07-31T10:04:12.718Z,160
2016-07-31T10:05:14.142Z,155
2016-07-31T10:06:12.699Z,165
2016-07-31T10:07:13.433Z,165
2016-07-31T10:08:14.109Z,155
2016-07-31T10:09:13.465Z,145
2016-07-31T10:10:14.111Z,155
2016-07-31T10:11:12.671Z,150
2016-07-31T10:12:14.067Z,140
2016-07-31T10:13:13.359Z,135
2016-07-31T10:14:12.675Z,125
2016-07-31T10:15:12.627Z,115
2016-07-31T10:16:14.040Z,115
2016-07-31T10:17:14.023Z,115
2016-07-31T10:18:13.419Z,115
2016-07-31T10:19:12.588Z,110
2016-07-31T10:20:13.296Z,110
2016-07-31T10:21:13.300Z,110
2016-07-31T10:22:13.977Z,115
2016-07-31T10:23:13.305Z,125
2016-07-31T10:24:13.972Z,130
2016-07-31T10:25:12.545Z,135
2016-07-31T10:26:13.290Z,125
2016-07-31T10:27:13.959Z,110
2016-07-31T10:28:13.977Z,95
2016-07-31T10:29:13.928Z,90
2016-07-31T10:31:13.178Z,80
2016-07-31T10:32:11.809Z,80
2016-07-31T10:33:13.898Z,75
2016-07-31T10:34:13.175Z,75
2016-07-31T10:35:13.866Z,80
2016-07-31T10:36:12.424Z,80
2016-07-31T10:37:12.499Z,80
2016-07-31T10:38:13.381Z,75
2016-07-31T10:39:12.389Z,75
2016-07-31T10:40:13.099Z,70
2016-07-31T10:41:13.797Z,70
2016-07-31T10:42:13.848Z,75
2016-07-31T10:43:13.816Z,85
2016-07-31T10:44:13.870Z,90
2016-07-31T10:45:12.347Z,95
2016-07-31T10:46:13.786Z,105
2016-07-31T10:47:13.764Z,110
2016-07-31T10:48:13.739Z,110
2016-07-31T10:49:11.594Z,115
2016-07-31T10:50:13.739Z,130
2016-07-31T10:51:12.987Z,125
2016-07-31T10:52:13.006Z,130
2016-07-31T10:53:13.687Z,130
2016-07-31T10:54:12.956Z,130
2016-07-31T10:55:13.685Z,130
2016-07-31T10:56:12.226Z,130
2016-07-31T10:57:12.943Z,125
2016-07-31T10:58:12.915Z,125
2016-07-31T10:59:12.186Z,120
2016-07-31T11:00:13.646Z,115
2016-07-31T11:01:12.901Z,115
2016-07-31T11:02:12.916Z,110
2016-07-31T11:03:12.860Z,110
2016-07-31T11:04:12.883Z,110
2016-07-31T11:05:13.536Z,110
2016-07-31T11:06:13.536Z,110
2016-07-31T11:07:13.533Z,110
2016-07-31T11:08:12.823Z,110
2016-07-31T11:09:12.088Z,110
2016-07-31T11:10:13.589Z,110
2016-07-31T11:11:13.490Z,115
2016-07-31T11:12:12.823Z,115
2016-07-31T11:13:13.473Z,120
2016-07-31T11:14:13.475Z,115
2016-07-31T11:15:12.736Z,110
2016-07-31T11:16:12.739Z,105
2016-07-31T11:17:13.436Z,100
2016-07-31T11:18:13.439Z,100
2016-07-31T11:19:11.985Z,100
2016-07-31T11:20:13.476Z,100
2016-07-31T11:21:11.955Z,100
2016-07-31T11:22:12.678Z,100
2016-07-31T11:23:13.396Z,100
2016-07-31T11:24:12.646Z,100
2016-07-31T11:25:12.657Z,100
2016-07-31T11:26:13.368Z,100
2016-07-31T11:27:12.660Z,100
2016-07-31T11:28:12.621Z,100
2016-07-31T11:29:13.496Z,100
2016-07-31T11:30:13.312Z,100
2016-07-31T11:31:11.844Z,100
2016-07-31T11:32:11.853Z,105
2016-07-31T11:33:12.556Z,105
2016-07-31T11:34:13.265Z,115
2016-07-31T11:35:12.607Z,120
2016-07-31T11:36:11.807Z,125
2016-07-31T11:37:13.309Z,125
2016-07-31T11:38:11.798Z,125
2016-07-31T11:39:12.497Z,125
2016-07-31T11:40:12.511Z,135
2016-07-31T11:41:12.499Z,125
2016-07-31T11:42:12.469Z,125
2016-07-31T11:43:11.766Z,120
2016-07-31T11:44:12.462Z,120
2016-07-31T11:45:13.194Z,115
2016-07-31T11:46:11.782Z,110
2016-07-31T11:47:11.747Z,110
2016-07-31T11:48:12.426Z,105
2016-07-31T11:49:11.699Z,100
2016-07-31T11:50:12.438Z,95
2016-07-31T11:51:12.399Z,95
2016-07-31T11:52:11.656Z,95
2016-07-31T11:53:12.387Z,95
2016-07-31T11:54:13.088Z,100
2016-07-31T11:55:12.397Z,110
2016-07-31T11:56:13.083Z,110
2016-07-31T11:57:13.036Z,115
2016-07-31T11:58:13.011Z,125
2016-07-31T11:59:11.679Z,120
2016-07-31T12:00:13.009Z,115
2016-07-31T12:01:11.596Z,115
2016-07-31T12:02:12.978Z,115
2016-07-31T12:03:12.266Z,115
2016-07-31T12:04:12.963Z,115
2016-07-31T12:05:11.614Z,110
2016-07-31T12:06:11.526Z,105
2016-07-31T12:07:12.973Z,95
2016-07-31T12:08:12.226Z,85
2016-07-31T12:09:12.219Z,80
2016-07-31T12:10:12.940Z,75
2016-07-31T12:11:12.177Z,65
2016-07-31T12:12:12.226Z,60
2016-07-31T12:13:12.865Z,60
2016-07-31T12:14:10.923Z,55
2016-07-31T12:15:12.853Z,55
2016-07-31T12:16:12.853Z,55
2016-07-31T12:17:12.116Z,55
2016-07-31T12:18:12.232Z,55
2016-07-31T12:19:11.418Z,55
2016-07-31T12:20:12.205Z,50
2016-07-31T12:21:12.796Z,50
2016-07-31T12:22:10.636Z,50
2016-07-31T12:23:11.355Z,50
2016-07-31T12:24:12.055Z,50
2016-07-31T12:25:12.038Z,50
2016-07-31T12:26:12.030Z,45
2016-07-31T12:27:12.746Z,45
2016-07-31T12:28:12.027Z,45
2016-07-31T12:29:12.709Z,45
2016-07-31T12:30:12.697Z,45
2016-07-31T12:31:10.615Z,45
2016-07-31T12:32:11.997Z,45
2016-07-31T12:33:11.961Z,40
2016-07-31T12:34:11.989Z,40
2016-07-31T12:35:11.944Z,45
2016-07-31T12:36:11.934Z,45
2016-07-31T12:37:11.194Z,55
2016-07-31T12:38:12.627Z,50
2016-07-31T12:39:11.173Z,50
2016-07-31T12:40:12.606Z,55
2016-07-31T12:41:11.866Z,55
2016-07-31T12:42:11.213Z,60
2016-07-31T12:43:11.839Z,65
2016-07-31T12:44:11.138Z,65
2016-07-31T12:45:11.834Z,70
2016-07-31T12:46:11.815Z,75
2016-07-31T12:47:12.539Z,85
2016-07-31T12:48:11.075Z,90
2016-07-31T12:49:11.778Z,95
2016-07-31T12:50:11.084Z,100
2016-07-31T12:51:11.766Z,100
2016-07-31T12:52:11.098Z,105
2016-07-31T12:53:11.749Z,115
2016-07-31T12:54:11.759Z,125
2016-07-31T12:55:11.719Z,140
2016-07-31T12:56:10.296Z,145
2016-07-31T12:57:11.048Z,150
2016-07-31T12:58:10.258Z,150
2016-07-31T12:59:12.387Z,155
2016-07-31T13:00:11.665Z,155
2016-07-31T13:01:12.377Z,160
2016-07-31T13:02:11.655Z,160
2016-07-31T13:03:12.346Z,155
2016-07-31T13:04:11.626Z,150
2016-07-31T13:05:10.183Z,135
2016-07-31T13:06:12.358Z,125
2016-07-31T13:07:12.332Z,115
2016-07-31T13:08:10.875Z,110
2016-07-31T13:09:12.297Z,95
2016-07-31T13:10:11.568Z,90
2016-07-31T13:11:10.835Z,90
2016-07-31T13:12:12.265Z,85
2016-07-31T13:13:10.818Z,90
2016-07-31T13:14:11.651Z,100
2016-07-31T13:15:12.296Z,110
2016-07-31T13:16:10.346Z,125
2016-07-31T13:17:10.078Z,140
2016-07-31T13:18:10.049Z,155
2016-07-31T13:19:11.467Z,170
2016-07-31T13:20:10.742Z,185
2016-07-31T13:21:11.540Z,195
2016-07-31T13:22:10.744Z,205
2016-07-31T13:23:11.590Z,205
2016-07-31T13:24:11.457Z,185
2016-07-31T13:25:12.166Z,170
2016-07-31T13:26:10.728Z,170
2016-07-31T13:27:10.694Z,180
2016-07-31T13:28:09.966Z,220
2016-07-31T13:29:10.657Z,210
2016-07-31T13:30:12.090Z,185
2016-07-31T13:32:11.362Z,180
2016-07-31T13:33:11.356Z,195
2016-07-31T13:34:11.328Z,270
2016-07-31T13:35:11.332Z,335
2016-07-31T13:36:11.318Z,340
2016-07-31T13:37:11.308Z,345
2016-07-31T13:38:12.019Z,345
2016-07-31T13:39:10.549Z,335
2016-07-31T13:40:10.626Z,320
2016-07-31T13:41:11.258Z,320
2016-07-31T13:42:11.984Z,320
2016-07-31T13:43:11.997Z,295
2016-07-31T13:44:11.958Z,280
2016-07-31T13:45:10.508Z,220
2016-07-31T13:47:11.295Z,195
2016-07-31T13:48:11.231Z,190
2016-07-31T13:49:11.198Z,185
2016-07-31T13:50:11.921Z,180
2016-07-31T13:51:11.901Z,185
2016-07-31T13:52:10.456Z,195
2016-07-31T13:53:10.450Z,205
2016-07-31T13:54:11.180Z,185
2016-07-31T13:55:11.870Z,165
2016-07-31T13:56:10.477Z,155
2016-07-31T13:57:11.847Z,140
2016-07-31T13:58:11.885Z,135
2016-07-31T13:59:10.384Z,120
2016-07-31T14:00:10.409Z,115
2016-07-31T14:01:11.100Z,110
2016-07-31T14:02:11.105Z,115
2016-07-31T14:03:11.809Z,120
2016-07-31T14:04:09.697Z,160
2016-07-31T14:05:11.149Z,240
2016-07-31T14:06:11.038Z,235
2016-07-31T14:07:11.050Z,235
2016-07-31T14:08:11.041Z,195
2016-07-31T14:09:10.391Z,230
2016-07-31T14:10:11.059Z,185
2016-07-31T14:11:11.740Z,175
2016-07-31T14:12:11.782Z,115
2016-07-31T14:13:11.003Z,115
2016-07-31T14:14:11.710Z,115
2016-07-31T14:15:11.762Z,115
2016-07-31T14:16:11.059Z,115
2016-07-31T14:17:10.962Z,115
2016-07-31T14:18:10.958Z,115
2016-07-31T14:19:10.939Z,115
2016-07-31T14:20:10.261Z,110
2016-07-31T14:21:11.641Z,110
2016-07-31T14:22:11.659Z,110